Pagina principale
METAR-TAF:

METAR-TAF

Aeroporti :

Aeroporto di Magadino

Locarno, Svizzera

latitudine: 46-09-55N, longitudine: 8-52-40E, altezza: 198 m

Osservazione

Il bollettino è stato emesso 37 minuti fa, alle 19:50 UTC
Vento calmo
Temperature 21°C
Umidità 100%
Pressione 1017 hPa
Visibilità 10 km o più
Nubi sparse ad un'altezza di 3800 ft

METAR: LSZL 161950Z AUTO 00000KT 9999NDV SCT038 21/21 Q1017 RMK

Ora: 22:27 (20:27 UTC)

Previsione

Il bollettino è stato emesso 3 ore e 2 minuti fa, alle 17:25 UTC
Previsione valida dal 16 alle 18 UTC al 17 alle 03 UTC
Vento 5 kt da ovest
Visibilità 10 km o più
Poco nuvoloso ad un'altezza di 11000 ft
Evoluzione graduale
dal 16 alle 18 UTC al 16 alle 21 UTC
Visibilità 10 km o più
nessuna nube inferiore a 1500 m e nessun cumulonembo

TAF: LSZL 161725Z 1618/1703 26005KT 9999 FEW110 BECMG 1618/1621 CAVOK

Osservazioni e previsioni meteorologiche di più di 4000 aeroporti (messaggi METAR e TAF).

Le stazioni disponibili sono rappresentate dai dischi gialli e rossi sulla carta.

Puntare il mouse per vedere il nome della stazione.

Clicca sopra per visualizzare le osservazioni e previsioni meteorologiche.

Per cambiare la mappa : fare clic sui pulsanti verdi con una croce nera per ingrandire, il pulsante verde con un trattino per diminuire, o sulla freccia verde per le mappe adiacenti.


METAR-TAF: